El Granada, CA

4:54 PM PDT on October 01, 2014 (GMT -0700)
Palo Alto Of Santa Clara County | Change Station
CLOSE
Current Station
Airport
Location: Palo Alto,
Elevation: 7 ft
Nearby Weather Stations
Active Advisory: Heat Advisory

Elev 7 ft 37.46 °N, 122.12 °W | Updated 1 hour ago

Clear
Clear
70 °F
Feels Like 70 °F
N
13
Wind Variable Wind from North

Today
High -- | Low -- °F
--% Chance of Precip.
Yesterday
High -- | Low -- °F
Precip. -- in
7:05 AM 6:52 PM
First Quarter, 52% visible
Pressure 29.87 in
Visibility 30.0 miles
Clouds Clear
Dew Point 63 °F
Humidity 78%
Rainfall 0.00 in
Snow Depth 0 in , 0 in , 1 in
UV 4 out of 12
Pollen 3.60 out of 12
Air Quality Not available.
Flu Activity Not available.
METAR KPAO 302247Z 36011KT 30SM SKC 21/17 A2987

More Conditions Fewer Conditions

Pressure 29.87 in
Visibility 30.0 miles
Clouds Clear
Dew Point 63 °F
Humidity 78%
Rainfall 0.00 in
Snow Depth 0 in , 0 in , 1 in
UV 4 out of 12
Pollen 3.60 out of 12
Air Quality Not available.
Flu Activity Not available.
METAR KPAO 302247Z 36011KT 30SM SKC 21/17 A2987

More Conditions Fewer Conditions

10-Day Weather Forecast

Almanac

Astronomy

Oct. 01, 2014 Rise Set
Actual Time 7:05 AM PDT 6:52 PM PDT
Civil Twilight 6:39 AM PDT 7:18 PM PDT
Nautical Twilight 6:09 AM PDT 7:49 PM PDT
Astronomical Twilight 5:38 AM PDT 8:19 PM PDT
Moon 2:05 PM PDT No Moon Set
Length of Visible Light 12h 39m
Length of Day
11h 47m
Tomorrow will be 2m 22s shorter.
First Quarter, 52% of the Moon is Illuminated
Today
First Quarter
Oct 8
Full
Oct 15
Last Quarter
Oct 23
New
Oct 30
First Quarter

Today's Extremes

State Highs State Lows

Community

WunderPhotos

Upload Photos

1,758,084 photos uploaded!

WunderBlogs® & News

By Dr. Jeff Masters
Director of Meteorology, Weather Underground
By Kari Strenfel
Meteorologist, Weather Underground
By Christopher C. Burt
Weather Historian, Weather Underground
October 1, 2014
October 1, 2014
October 1, 2014

Nearby

Snow Depth

Station Depth Elevation
Burnside Lake 0 in 8139 ft
Adin Mountain 0 in 6200 ft
Spratt Creek 0 in 6200 ft
CSS Lab 1 in 6900 ft

Earthquake Activity

City Distance Mag. Time & Date
South Dos Palos, California 108 miles 3.0 11:17 AM PDT
2014-10-01
East Foothills, California 38 miles 2.6 3:34 PM PDT
2014-09-30
South Dos Palos, California 108 miles 2.7 3:08 PM PDT
2014-09-30
South Dos Palos, California 108 miles 2.5 9:18 PM PDT
2014-09-29
Minimum magnitude displayed is 2.5.

Coastal Water Temperatures

Place Temperature
Point Reyes, CA 60.1 °F
San Francisco, CA 64.0 °F
Richmond, CA 66.9 °F

Nearby Weather Stations